createdAt,value
2023-02-17T00:03:03.217Z,0
2023-02-17T00:08:03.155Z,0
2023-02-17T00:13:03.119Z,0
2023-02-17T00:18:04.110Z,0
2023-02-17T00:23:03.084Z,0
2023-02-17T00:28:03.144Z,0
2023-02-17T00:33:03.134Z,0
2023-02-17T00:38:03.400Z,0
2023-02-17T00:43:03.122Z,0
2023-02-17T00:48:03.384Z,0
2023-02-17T00:53:03.136Z,0
2023-02-17T00:58:03.122Z,0
2023-02-17T01:03:03.129Z,0
2023-02-17T01:08:03.109Z,0
2023-02-17T01:13:03.062Z,0
2023-02-17T01:18:28.251Z,0
2023-02-17T01:23:04.831Z,0
2023-02-17T01:28:03.232Z,0
2023-02-17T01:33:03.752Z,0
2023-02-17T01:38:03.145Z,0
2023-02-17T01:43:03.117Z,0
2023-02-17T01:48:03.064Z,0
2023-02-17T01:53:03.117Z,0
2023-02-17T01:58:03.222Z,0
2023-02-17T02:03:03.183Z,0
2023-02-17T02:08:03.098Z,0
2023-02-17T02:13:03.122Z,0
2023-02-17T02:18:03.120Z,0
2023-02-17T02:23:03.103Z,0
2023-02-17T02:28:03.102Z,0
2023-02-17T02:33:03.646Z,0
2023-02-17T02:38:04.037Z,0
2023-02-17T02:43:03.106Z,0
2023-02-17T02:48:03.165Z,0
2023-02-17T02:53:03.128Z,0
2023-02-17T02:58:03.203Z,0
2023-02-17T03:03:03.190Z,0
2023-02-17T03:08:04.639Z,0
2023-02-17T03:13:03.104Z,0
2023-02-17T03:18:03.158Z,0
2023-02-17T03:23:03.147Z,0
2023-02-17T03:28:03.138Z,0
2023-02-17T03:33:03.151Z,0
2023-02-17T03:38:03.130Z,0
2023-02-17T03:43:03.135Z,0
2023-02-17T03:48:03.113Z,0
2023-02-17T03:53:03.100Z,0
2023-02-17T03:58:03.219Z,0
2023-02-17T04:03:03.162Z,0
2023-02-17T04:08:03.151Z,0
2023-02-17T04:13:03.159Z,0
2023-02-17T04:18:03.142Z,0
2023-02-17T04:23:03.220Z,0
2023-02-17T04:28:03.169Z,0
2023-02-17T04:33:03.161Z,0
2023-02-17T04:38:03.352Z,0
2023-02-17T04:43:03.105Z,0
2023-02-17T04:48:04.162Z,0
2023-02-17T04:53:04.175Z,0
2023-02-17T04:58:03.138Z,0
2023-02-17T05:03:03.371Z,0
2023-02-17T05:08:03.099Z,0
2023-02-17T05:13:03.597Z,0
2023-02-17T05:18:03.146Z,0
2023-02-17T05:23:03.223Z,0
2023-02-17T05:28:03.123Z,0
2023-02-17T05:33:03.183Z,0
2023-02-17T05:38:03.161Z,0
2023-02-17T05:43:03.133Z,0
2023-02-17T05:48:03.119Z,0
2023-02-17T05:53:03.228Z,0
2023-02-17T05:58:03.208Z,0
2023-02-17T06:03:03.261Z,0
2023-02-17T06:08:03.179Z,0
2023-02-17T06:13:03.112Z,0
2023-02-17T06:18:03.601Z,256
2023-02-17T06:23:03.749Z,257
2023-02-17T06:28:03.203Z,260
2023-02-17T06:33:03.220Z,265
2023-02-17T06:38:03.168Z,272
2023-02-17T06:43:03.201Z,276
2023-02-17T06:48:03.186Z,288
2023-02-17T06:53:03.406Z,313
2023-02-17T06:58:03.170Z,336
2023-02-17T07:03:03.251Z,352
2023-02-17T07:08:03.185Z,332
2023-02-17T07:13:03.167Z,392
2023-02-17T07:18:03.195Z,385
2023-02-17T07:23:03.187Z,350
2023-02-17T07:28:03.191Z,352
2023-02-17T07:33:04.898Z,353
2023-02-17T07:38:03.197Z,369
2023-02-17T07:43:03.639Z,380
2023-02-17T07:48:03.163Z,470
2023-02-17T07:53:03.234Z,522
2023-02-17T07:58:03.252Z,566
2023-02-17T08:03:03.157Z,535
2023-02-17T08:08:03.152Z,401
2023-02-17T08:13:03.237Z,372
2023-02-17T08:18:03.164Z,376
2023-02-17T08:23:03.176Z,453
2023-02-17T08:28:03.338Z,445
2023-02-17T08:33:03.208Z,487
2023-02-17T08:38:03.190Z,519
2023-02-17T08:43:03.802Z,484
2023-02-17T08:48:03.490Z,431
2023-02-17T08:53:03.257Z,418
2023-02-17T08:58:03.346Z,391
2023-02-17T09:03:03.195Z,383
2023-02-17T09:08:03.236Z,380
2023-02-17T09:13:03.139Z,434
2023-02-17T09:18:03.157Z,428
2023-02-17T09:23:03.210Z,417
2023-02-17T09:28:03.214Z,453
2023-02-17T09:33:03.198Z,451
2023-02-17T09:38:03.194Z,436
2023-02-17T09:43:03.186Z,451
2023-02-17T09:48:03.162Z,434
2023-02-17T09:53:03.187Z,435
2023-02-17T09:58:03.258Z,439
2023-02-17T10:03:03.128Z,440
2023-02-17T10:08:03.279Z,392
2023-02-17T10:13:03.185Z,391
2023-02-17T10:18:03.141Z,416
2023-02-17T10:23:03.165Z,376
2023-02-17T10:28:03.283Z,372
2023-02-17T10:33:03.446Z,408
2023-02-17T10:38:03.277Z,468
2023-02-17T10:43:05.635Z,506
2023-02-17T10:48:04.709Z,496
2023-02-17T10:53:03.191Z,670
2023-02-17T10:58:03.275Z,506
2023-02-17T11:03:03.182Z,580
2023-02-17T11:08:03.229Z,549
2023-02-17T11:13:03.187Z,568
2023-02-17T11:18:03.243Z,664
2023-02-17T11:23:03.257Z,483
2023-02-17T11:28:03.679Z,596
2023-02-17T11:33:03.226Z,547
2023-02-17T11:38:03.161Z,456
2023-02-17T11:43:03.218Z,417
2023-02-17T11:48:03.195Z,401
2023-02-17T11:53:03.182Z,523
2023-02-17T11:58:03.318Z,553
2023-02-17T12:03:03.222Z,475
2023-02-17T12:08:03.181Z,543
2023-02-17T12:13:03.207Z,546
2023-02-17T12:18:03.213Z,604
2023-02-17T12:23:03.246Z,660
2023-02-17T12:28:03.416Z,552
2023-02-17T12:33:03.163Z,417
2023-02-17T12:38:03.179Z,418
2023-02-17T12:43:03.230Z,417
2023-02-17T12:48:03.763Z,455
2023-02-17T12:53:03.249Z,447
2023-02-17T12:58:03.280Z,378
2023-02-17T13:03:03.770Z,366
2023-02-17T13:08:03.444Z,380
2023-02-17T13:13:03.287Z,375
2023-02-17T13:18:03.256Z,335
2023-02-17T13:23:03.278Z,374
2023-02-17T13:28:03.294Z,404
2023-02-17T13:33:03.280Z,419
2023-02-17T13:38:03.320Z,385
2023-02-17T13:43:03.339Z,400
2023-02-17T13:48:03.330Z,391
2023-02-17T13:53:03.507Z,429
2023-02-17T13:58:03.400Z,467
2023-02-17T14:03:03.294Z,412
2023-02-17T14:08:03.263Z,401
2023-02-17T14:13:03.267Z,421
2023-02-17T14:18:03.364Z,448
2023-02-17T14:23:05.465Z,507
2023-02-17T14:28:03.312Z,504
2023-02-17T14:33:03.331Z,598
2023-02-17T14:38:03.358Z,569
2023-02-17T14:43:03.269Z,517
2023-02-17T14:48:03.291Z,556
2023-02-17T14:53:03.711Z,607
2023-02-17T14:58:03.391Z,513
2023-02-17T15:03:03.311Z,426
2023-02-17T15:08:03.259Z,462
2023-02-17T15:13:03.275Z,509
2023-02-17T15:18:03.305Z,482
2023-02-17T15:23:03.258Z,470
2023-02-17T15:28:03.299Z,470
2023-02-17T15:33:03.265Z,462
2023-02-17T15:38:03.297Z,416
2023-02-17T15:43:03.303Z,392
2023-02-17T15:48:03.292Z,346
2023-02-17T15:53:03.334Z,329
2023-02-17T15:58:03.261Z,309
2023-02-17T16:03:03.525Z,297
2023-02-17T16:08:03.365Z,292
2023-02-17T16:13:03.327Z,296
2023-02-17T16:18:03.564Z,278
2023-02-17T16:23:03.346Z,265
2023-02-17T16:28:03.271Z,260
2023-02-17T16:33:03.340Z,257
2023-02-17T16:38:03.440Z,256
2023-02-17T16:43:03.311Z,256
2023-02-17T16:48:03.326Z,0
2023-02-17T16:53:03.335Z,0
2023-02-17T16:58:03.409Z,0
2023-02-17T17:03:03.313Z,0
2023-02-17T17:08:03.249Z,0
2023-02-17T17:13:03.270Z,0
2023-02-17T17:18:03.223Z,0
2023-02-17T17:23:03.291Z,0
2023-02-17T17:28:03.250Z,0
2023-02-17T17:33:03.804Z,0
2023-02-17T17:38:03.330Z,0
2023-02-17T17:43:03.320Z,0
2023-02-17T17:48:03.311Z,0
2023-02-17T17:53:03.314Z,0
2023-02-17T17:58:03.354Z,0
2023-02-17T18:03:03.310Z,0
2023-02-17T18:08:03.310Z,0
2023-02-17T18:13:03.303Z,0
2023-02-17T18:18:03.334Z,0
2023-02-17T18:23:03.478Z,0
2023-02-17T18:28:04.249Z,0
2023-02-17T18:33:03.261Z,0
2023-02-17T18:38:03.257Z,0
2023-02-17T18:43:03.258Z,0
2023-02-17T18:48:03.320Z,0
2023-02-17T18:53:05.249Z,0
2023-02-17T18:58:03.337Z,0
2023-02-17T19:03:03.355Z,0
2023-02-17T19:08:03.345Z,0
2023-02-17T19:13:03.541Z,0
2023-02-17T19:18:03.591Z,0
2023-02-17T19:23:04.090Z,0
2023-02-17T19:28:03.371Z,0
2023-02-17T19:33:04.479Z,0
2023-02-17T19:38:03.398Z,0
2023-02-17T19:43:03.296Z,0
2023-02-17T19:48:03.311Z,0
2023-02-17T19:53:03.406Z,0
2023-02-17T19:58:03.415Z,0
2023-02-17T20:03:03.400Z,0
2023-02-17T20:08:03.288Z,0
2023-02-17T20:13:03.267Z,0
2023-02-17T20:18:03.316Z,0
2023-02-17T20:23:03.339Z,0
2023-02-17T20:28:03.336Z,0
2023-02-17T20:33:03.296Z,0
2023-02-17T20:38:03.363Z,0
2023-02-17T20:43:04.398Z,0
2023-02-17T20:48:03.351Z,0
2023-02-17T20:53:03.299Z,0
2023-02-17T20:58:03.504Z,0
2023-02-17T21:03:03.413Z,0
2023-02-17T21:08:03.319Z,0
2023-02-17T21:13:03.456Z,0
2023-02-17T21:18:04.280Z,0
2023-02-17T21:23:03.353Z,0
2023-02-17T21:28:03.368Z,0
2023-02-17T21:33:03.313Z,0
2023-02-17T21:38:05.814Z,0
2023-02-17T21:43:03.344Z,0
2023-02-17T21:48:03.406Z,0
2023-02-17T21:53:03.362Z,0
2023-02-17T21:58:03.359Z,0
2023-02-17T22:03:04.450Z,0
2023-02-17T22:08:03.513Z,0
2023-02-17T22:13:03.334Z,0
2023-02-17T22:18:03.338Z,0
2023-02-17T22:23:03.311Z,0
2023-02-17T22:28:03.282Z,0
2023-02-17T22:33:03.359Z,0
2023-02-17T22:38:03.360Z,0
2023-02-17T22:43:03.563Z,0
2023-02-17T22:48:03.313Z,0
2023-02-17T22:53:03.364Z,0
2023-02-17T22:58:03.464Z,0
2023-02-17T23:03:03.380Z,0
2023-02-17T23:08:03.399Z,0
2023-02-17T23:13:03.499Z,0
2023-02-17T23:18:03.601Z,0
2023-02-17T23:23:03.588Z,0
2023-02-17T23:28:03.610Z,0
2023-02-17T23:33:03.589Z,0
2023-02-17T23:38:03.404Z,0
2023-02-17T23:43:03.412Z,0
2023-02-17T23:48:03.434Z,0
2023-02-17T23:53:03.472Z,0
2023-02-17T23:58:03.448Z,0
